Skip Navigation LinksHome page > Weather > Current weather Skip Navigation Links

Current Weather

Palm Beach Intl, West Palm Beach, Fla.

For information only: do not use for flight planning or navigation.
Latest weather
Observation time Saturday, January 23, 2021 9:53 PM EST
Local time Saturday, January 23, 2021 10:14 PM EST
Flight conditions Visual Meteorological Conditions
Winds
Wind direction North (350°)
Wind speed 6 mph
Visibility 10 mi.
Sky condition
Ceiling unlimited
Cloud layer few clouds 2,200 ft.
Cloud layer scattered clouds 5,000 ft.
Temperature 70°F
Dewpoint 65°F
Altimeter 30.11 in.Hg
Pressure change last 3 hours-0.03 in.Hg
Pressure rising more slowly
Derived measurements
Relative humidity 84%
Density altitude 802 ft.
Sea-level pressure 30.11 in.Hg
Remarks
Automated weather observing station with precipitation discriminator.
METAR KPBI 240253Z 35005KT 10SM FEW022 SCT050 21/18 A3011 RMK AO2 SLP195 T02110183 51009

Settings

Location code

InnerDrive.Weather 4.0.6770.0 Release CLR 4.0.30319.42000
Copyright ©2018 Inner Drive Technology. All rights reserved. Portions Copyright ©1986-2018 David Braverman.

Find weather

Site navigation


Skip Navigation Links

Place info

Page info

PayPal - The safer, easier way to pay online!

Return home.

Copyright ©2021 Inner Drive Technology. Purveyors of fine, hand-crafted computer software. Page printed 2021-01-24T03:14:27 UTC.